Buffalo, NY

1:13 PM EDT on July 25, 2016 (GMT -0400)
Buffalo Niagara International | | Change Station
Active Advisory: Beach Hazard Statement Active Notice: Local Storm Report

Elev 702 ft 42.94 °N, 78.74 °W | Updated 19 minutes ago

Light Rain
Light Rain
75 °F
Feels Like 75 °F
N
10
Wind Variable Wind from SW

Today
High -- | Low -- °F
--% Chance of Precip.
Yesterday
High -- | Low -- °F
Precip. -- in
Pressure 29.87 in
Visibility 9.0 miles
Clouds Overcast 800 ft
Dew Point 72 °F
Humidity 90%
Rainfall 1.04 in
Snow Depth Not available.
5:59 AM 8:42 PM
Waning Gibbous, 64% visible
METAR KBUF 251654Z 22009KT 9SM -RA OVC008 24/22 A2988 RMK AO2 RAE26B46 TSB27E46 SLP115 TS MOVD E PCPN VRY LGT P0000 T02390222 $
Pressure 29.87 in
Visibility 9.0 miles
Clouds Overcast 800 ft
Dew Point 72 °F
Humidity 90%
Rainfall 1.04 in
Snow Depth Not available.
5:59 AM 8:42 PM
Waning Gibbous, 64% visible
METAR KBUF 251654Z 22009KT 9SM -RA OVC008 24/22 A2988 RMK AO2 RAE26B46 TSB27E46 SLP115 TS MOVD E PCPN VRY LGT P0000 T02390222 $
Record highs are possible for parts of the Northeast Monday and Tuesday, as parts of the central U.S. take a little breather from the worst of summer's dog day heat.

Expansive high pressure in the upper atmosphere will focus on parts of the East and West this week, sending heat indices well into the triple digits from the Mid-Atlantic states into the South.

10-Day Weather Forecast

Almanac

Astronomy

Jul. 25, 2016 Rise Set
Actual Time
Civil Twilight
Nautical Twilight
Astronomical Twilight
Moon
Length of Visible Light
Length of Day
Tomorrow will be .
, % of the Moon is Illuminated

Today's Extremes

State Highs State Lows

Community

WunderPhotos

Upload Photos

1,927,356 photos uploaded!

WunderBlog® & News

Nearby

Air Quality

  Air Quality AQ Index Pollutant
Not available.

Snow Depth

Station Depth Elevation

Earthquake Activity

City Distance Mag. Time & Date
Minimum magnitude displayed is 2.5.

Coastal Water Temperatures

Place Temperature

Stations

Nearby Weather Stations

Station Location Temp. Windchill Dew Point Humidity Wind Precip. Elev Updated Type
                   

Watches & Warnings

Beach Hazard Statement
Issued: 10:35 AM EDT Jul. 25, 2016 – National Weather Service

... Beach hazards statement remains in effect until 8 PM EDT this
evening...

* locations... beaches of northern Erie and southern Erie
counties.

* Timing... from late this morning through early this evening.

* Impacts... strong currents and dangerous swimming conditions.

Precautionary/preparedness actions...

A beach hazards statement is issued when there is a high swim
risk. This means life threatening waves and currents are
expected. Stay out of the water and stay away from dangerous
areas like piers and breakwalls.